SWA3550 KTYS-KMCO
Flight info
| Callsign | SWA3550 |
|---|---|
| Flight time | 1h 13m |
| Altitude | 39000 |
| Route | TALLA DAREE Q65 KERLY WHYYT GRNCH5 |
| Aircraft | B738/M-SDE2E3GHIJ4J7P2RWZ/LB1D1 |
Departure
| Time | 2026-05-07 13:58 |
|---|---|
| Airport | McGhee Tyson Airport (KTYS) |
Arrival
| Time | 2026-05-07 15:11 |
|---|---|
| Airport | Orlando International Airport (KMCO) |
| Time | Latitude | Longitude | Altitude | Speed | Heading |
|---|---|---|---|---|---|
| 2026-05-07 13:39 | 35.80685 | -83.99131 | 956 ft | 0 kts | 94° |
| 2026-05-07 13:48 | 35.80687 | -83.99143 | 956 ft | 2 kts | 112° |
| 2026-05-07 13:48 | 35.80692 | -83.99160 | 956 ft | 2 kts | 105° |
| 2026-05-07 13:49 | 35.80696 | -83.99178 | 956 ft | 2 kts | 108° |
| 2026-05-07 13:49 | 35.80701 | -83.99195 | 956 ft | 2 kts | 107° |
| 2026-05-07 13:49 | 35.80705 | -83.99213 | 956 ft | 2 kts | 107° |
| 2026-05-07 13:49 | 35.80710 | -83.99231 | 956 ft | 2 kts | 107° |
| 2026-05-07 13:50 | 35.80713 | -83.99243 | 956 ft | 0 kts | 107° |
| 2026-05-07 13:50 | 35.80714 | -83.99258 | 956 ft | 1 kts | 64° |
| 2026-05-07 13:50 | 35.80709 | -83.99266 | 955 ft | 1 kts | 38° |
| 2026-05-07 13:50 | 35.80706 | -83.99269 | 955 ft | 0 kts | 43° |
| 2026-05-07 13:53 | 35.80709 | -83.99266 | 955 ft | 2 kts | 43° |
| 2026-05-07 13:53 | 35.80728 | -83.99245 | 956 ft | 5 kts | 37° |
| 2026-05-07 13:54 | 35.80774 | -83.99261 | 957 ft | 10 kts | 287° |
| 2026-05-07 13:54 | 35.80719 | -83.99365 | 954 ft | 19 kts | 225° |
| 2026-05-07 13:54 | 35.80665 | -83.99511 | 951 ft | 19 kts | 302° |
| 2026-05-07 13:54 | 35.80750 | -83.99639 | 951 ft | 18 kts | 307° |
| 2026-05-07 13:55 | 35.80826 | -83.99769 | 952 ft | 19 kts | 298° |
| 2026-05-07 13:55 | 35.80772 | -83.99922 | 947 ft | 24 kts | 225° |
| 2026-05-07 13:55 | 35.80640 | -84.00084 | 938 ft | 28 kts | 225° |
| 2026-05-07 13:55 | 35.80492 | -84.00264 | 929 ft | 31 kts | 225° |
| 2026-05-07 13:56 | 35.80380 | -84.00405 | 921 ft | 16 kts | 235° |
| 2026-05-07 13:56 | 35.80395 | -84.00489 | 921 ft | 0 kts | 307° |
| 2026-05-07 13:56 | 35.80415 | -84.00515 | 921 ft | 10 kts | 323° |
| 2026-05-07 13:56 | 35.80471 | -84.00498 | 923 ft | 7 kts | 43° |
| 2026-05-07 13:57 | 35.80506 | -84.00457 | 925 ft | 13 kts | 44° |
| 2026-05-07 13:57 | 35.80740 | -84.00172 | 941 ft | 77 kts | 45° |
| 2026-05-07 13:57 | 35.81253 | -83.99546 | 969 ft | 130 kts | 45° |
| 2026-05-07 13:57 | 35.82005 | -83.98619 | 1018 ft | 170 kts | 44° |
| 2026-05-07 13:58 | 35.82821 | -83.97607 | 1561 ft | 167 kts | 43° |
| 2026-05-07 13:58 | 35.83670 | -83.96619 | 2104 ft | 171 kts | 41° |
| 2026-05-07 13:58 | 35.84560 | -83.95586 | 2602 ft | 178 kts | 43° |
| 2026-05-07 13:58 | 35.85356 | -83.94367 | 2951 ft | 190 kts | 67° |
| 2026-05-07 13:59 | 35.85381 | -83.92711 | 3265 ft | 207 kts | 109° |
| 2026-05-07 13:59 | 35.84415 | -83.91348 | 3519 ft | 226 kts | 151° |
| 2026-05-07 13:59 | 35.82833 | -83.91007 | 3760 ft | 243 kts | 191° |
| 2026-05-07 13:59 | 35.81210 | -83.91709 | 4178 ft | 252 kts | 207° |
| 2026-05-07 14:00 | 35.79607 | -83.92664 | 4665 ft | 261 kts | 207° |
| 2026-05-07 14:00 | 35.77913 | -83.93562 | 5289 ft | 265 kts | 204° |
| 2026-05-07 14:00 | 35.76210 | -83.94364 | 6013 ft | 264 kts | 203° |
| 2026-05-07 14:00 | 35.74489 | -83.95141 | 6715 ft | 265 kts | 203° |
| 2026-05-07 14:01 | 35.72752 | -83.95923 | 7366 ft | 267 kts | 204° |
| 2026-05-07 14:01 | 35.70989 | -83.96720 | 8041 ft | 270 kts | 205° |
| 2026-05-07 14:01 | 35.69216 | -83.97420 | 8691 ft | 275 kts | 198° |
| 2026-05-07 14:01 | 35.67262 | -83.97612 | 9303 ft | 289 kts | 184° |
| 2026-05-07 14:02 | 35.65239 | -83.97365 | 9955 ft | 295 kts | 180° |
| 2026-05-07 14:02 | 35.63163 | -83.97029 | 10470 ft | 304 kts | 180° |
| 2026-05-07 14:02 | 35.61012 | -83.96717 | 10898 ft | 316 kts | 181° |
| 2026-05-07 14:02 | 35.58779 | -83.96442 | 11253 ft | 329 kts | 182° |
| 2026-05-07 14:03 | 35.56461 | -83.96183 | 11689 ft | 341 kts | 182° |
| 2026-05-07 14:03 | 35.54071 | -83.95928 | 12090 ft | 352 kts | 183° |
| 2026-05-07 14:03 | 35.51590 | -83.95664 | 12557 ft | 362 kts | 184° |
| 2026-05-07 14:03 | 35.49060 | -83.95393 | 13198 ft | 366 kts | 183° |
| 2026-05-07 14:04 | 35.46525 | -83.95111 | 13959 ft | 367 kts | 184° |
| 2026-05-07 14:04 | 35.44002 | -83.94818 | 14852 ft | 363 kts | 184° |
| 2026-05-07 14:04 | 35.41481 | -83.94532 | 15462 ft | 368 kts | 185° |
| 2026-05-07 14:04 | 35.38924 | -83.94256 | 16058 ft | 372 kts | 185° |
| 2026-05-07 14:05 | 35.36309 | -83.93973 | 16626 ft | 378 kts | 185° |
| 2026-05-07 14:05 | 35.33699 | -83.93687 | 17325 ft | 378 kts | 186° |
| 2026-05-07 14:05 | 35.31047 | -83.93393 | 17890 ft | 381 kts | 186° |
| 2026-05-07 14:05 | 35.28397 | -83.93104 | 18441 ft | 385 kts | 186° |
| 2026-05-07 14:06 | 35.25719 | -83.92815 | 18935 ft | 391 kts | 186° |
| 2026-05-07 14:06 | 35.22973 | -83.92518 | 19483 ft | 394 kts | 186° |
| 2026-05-07 14:06 | 35.20244 | -83.92221 | 20057 ft | 397 kts | 186° |
| 2026-05-07 14:06 | 35.17500 | -83.91924 | 20634 ft | 399 kts | 186° |
| 2026-05-07 14:07 | 35.14730 | -83.91624 | 21128 ft | 403 kts | 186° |
| 2026-05-07 14:07 | 35.11930 | -83.91323 | 21640 ft | 406 kts | 186° |
| 2026-05-07 14:07 | 35.09075 | -83.91015 | 22111 ft | 409 kts | 187° |
| 2026-05-07 14:07 | 35.06240 | -83.90707 | 22646 ft | 411 kts | 187° |
| 2026-05-07 14:08 | 35.03388 | -83.90398 | 23122 ft | 413 kts | 187° |
| 2026-05-07 14:08 | 35.00519 | -83.90086 | 23558 ft | 417 kts | 187° |
| 2026-05-07 14:08 | 34.97604 | -83.89769 | 24050 ft | 419 kts | 187° |
| 2026-05-07 14:08 | 34.94682 | -83.89455 | 24474 ft | 422 kts | 187° |
| 2026-05-07 14:09 | 34.91759 | -83.89138 | 24897 ft | 426 kts | 187° |
| 2026-05-07 14:09 | 34.88770 | -83.88815 | 25402 ft | 427 kts | 187° |
| 2026-05-07 14:09 | 34.85762 | -83.88489 | 25794 ft | 432 kts | 187° |
| 2026-05-07 14:09 | 34.82829 | -83.88172 | 26294 ft | 432 kts | 187° |
| 2026-05-07 14:10 | 34.79824 | -83.87846 | 26673 ft | 436 kts | 187° |
| 2026-05-07 14:10 | 34.76789 | -83.87522 | 26981 ft | 441 kts | 187° |
| 2026-05-07 14:10 | 34.73715 | -83.87191 | 27439 ft | 442 kts | 187° |
| 2026-05-07 14:10 | 34.70630 | -83.86862 | 27765 ft | 446 kts | 187° |
| 2026-05-07 14:11 | 34.67522 | -83.86504 | 28241 ft | 448 kts | 185° |
| 2026-05-07 14:11 | 34.64431 | -83.85906 | 28611 ft | 460 kts | 180° |
| 2026-05-07 14:11 | 34.61278 | -83.84865 | 28842 ft | 477 kts | 173° |
| 2026-05-07 14:11 | 34.58132 | -83.83388 | 29400 ft | 482 kts | 169° |
| 2026-05-07 14:12 | 34.55083 | -83.81713 | 30038 ft | 481 kts | 166° |
| 2026-05-07 14:12 | 34.52094 | -83.79928 | 30712 ft | 477 kts | 165° |
| 2026-05-07 14:12 | 34.49151 | -83.78104 | 31188 ft | 477 kts | 165° |
| 2026-05-07 14:12 | 34.46193 | -83.76254 | 31634 ft | 475 kts | 165° |
| 2026-05-07 14:13 | 34.43267 | -83.74423 | 32165 ft | 472 kts | 165° |
| 2026-05-07 14:13 | 34.40331 | -83.72604 | 32507 ft | 472 kts | 166° |
| 2026-05-07 14:13 | 34.37378 | -83.70792 | 32925 ft | 470 kts | 165° |
| 2026-05-07 14:13 | 34.34455 | -83.69008 | 33452 ft | 467 kts | 166° |
| 2026-05-07 14:14 | 34.31531 | -83.67235 | 33918 ft | 464 kts | 166° |
| 2026-05-07 14:14 | 34.28584 | -83.65458 | 34263 ft | 465 kts | 166° |
| 2026-05-07 14:14 | 34.25666 | -83.63711 | 34519 ft | 467 kts | 166° |
| 2026-05-07 14:14 | 34.22739 | -83.61959 | 34989 ft | 464 kts | 166° |
| 2026-05-07 14:15 | 34.19856 | -83.60228 | 35491 ft | 461 kts | 166° |
| 2026-05-07 14:15 | 34.16971 | -83.58499 | 35809 ft | 461 kts | 166° |
| 2026-05-07 14:15 | 34.14080 | -83.56777 | 35936 ft | 465 kts | 166° |
| 2026-05-07 14:15 | 34.11192 | -83.55061 | 36120 ft | 468 kts | 166° |
| 2026-05-07 14:16 | 34.08258 | -83.53312 | 36612 ft | 464 kts | 166° |
| 2026-05-07 14:16 | 34.05387 | -83.51595 | 36881 ft | 464 kts | 166° |
| 2026-05-07 14:16 | 34.02464 | -83.49854 | 37019 ft | 467 kts | 166° |
| 2026-05-07 14:16 | 33.99554 | -83.48123 | 37369 ft | 465 kts | 166° |
| 2026-05-07 14:17 | 33.96637 | -83.46385 | 37643 ft | 465 kts | 166° |
| 2026-05-07 14:17 | 33.93715 | -83.44648 | 37827 ft | 466 kts | 166° |
| 2026-05-07 14:17 | 33.90822 | -83.42928 | 38178 ft | 464 kts | 166° |
| 2026-05-07 14:17 | 33.87933 | -83.41210 | 38399 ft | 464 kts | 166° |
| 2026-05-07 14:18 | 33.84988 | -83.39464 | 38562 ft | 465 kts | 166° |
| 2026-05-07 14:18 | 33.82071 | -83.37736 | 38753 ft | 466 kts | 166° |
| 2026-05-07 14:18 | 33.79168 | -83.36018 | 38897 ft | 467 kts | 166° |
| 2026-05-07 14:19 | 33.73270 | -83.32532 | 38913 ft | 468 kts | 166° |
| 2026-05-07 14:19 | 33.67420 | -83.29072 | 38913 ft | 466 kts | 166° |
| 2026-05-07 14:20 | 33.61599 | -83.25639 | 38925 ft | 468 kts | 166° |
| 2026-05-07 14:20 | 33.55753 | -83.22197 | 38922 ft | 468 kts | 166° |
| 2026-05-07 14:21 | 33.49918 | -83.18758 | 38926 ft | 464 kts | 166° |
| 2026-05-07 14:21 | 33.44125 | -83.15355 | 38923 ft | 463 kts | 166° |
| 2026-05-07 14:22 | 33.38294 | -83.11944 | 38922 ft | 465 kts | 166° |
| 2026-05-07 14:22 | 33.32470 | -83.08535 | 38922 ft | 466 kts | 165° |
| 2026-05-07 14:23 | 33.26631 | -83.05119 | 38923 ft | 466 kts | 165° |
| 2026-05-07 14:23 | 33.20776 | -83.01701 | 38928 ft | 468 kts | 165° |
| 2026-05-07 14:24 | 33.14922 | -82.98290 | 38926 ft | 467 kts | 165° |
| 2026-05-07 14:24 | 33.09069 | -82.94882 | 38926 ft | 467 kts | 165° |
| 2026-05-07 14:25 | 33.03228 | -82.91488 | 38929 ft | 467 kts | 165° |
| 2026-05-07 14:25 | 32.97324 | -82.88069 | 38938 ft | 470 kts | 165° |
| 2026-05-07 14:26 | 32.91457 | -82.84671 | 38933 ft | 468 kts | 165° |
| 2026-05-07 14:26 | 32.85525 | -82.81235 | 38935 ft | 469 kts | 164° |
| 2026-05-07 14:27 | 32.79628 | -82.77834 | 38939 ft | 471 kts | 164° |
| 2026-05-07 14:27 | 32.73753 | -82.74448 | 38937 ft | 469 kts | 164° |
| 2026-05-07 14:28 | 32.67856 | -82.71047 | 38936 ft | 471 kts | 163° |
| 2026-05-07 14:28 | 32.61901 | -82.67623 | 38934 ft | 471 kts | 163° |
| 2026-05-07 14:29 | 32.55987 | -82.64226 | 38940 ft | 471 kts | 163° |
| 2026-05-07 14:29 | 32.50038 | -82.60815 | 38943 ft | 472 kts | 163° |
| 2026-05-07 14:30 | 32.44105 | -82.57419 | 38933 ft | 473 kts | 163° |
| 2026-05-07 14:30 | 32.38184 | -82.54029 | 38951 ft | 470 kts | 163° |
| 2026-05-07 14:31 | 32.32283 | -82.50662 | 38955 ft | 471 kts | 163° |
| 2026-05-07 14:31 | 32.26363 | -82.47292 | 38965 ft | 472 kts | 163° |
| 2026-05-07 14:32 | 32.20430 | -82.43916 | 38974 ft | 471 kts | 163° |
| 2026-05-07 14:32 | 32.14472 | -82.40530 | 38975 ft | 472 kts | 163° |
| 2026-05-07 14:33 | 32.08524 | -82.37461 | 38974 ft | 463 kts | 171° |
| 2026-05-07 14:33 | 32.02309 | -82.35924 | 38984 ft | 450 kts | 182° |
| 2026-05-07 14:34 | 31.96090 | -82.35246 | 38983 ft | 446 kts | 184° |
| 2026-05-07 14:34 | 31.89887 | -82.34713 | 38984 ft | 444 kts | 185° |
| 2026-05-07 14:35 | 31.83655 | -82.34147 | 38985 ft | 446 kts | 184° |
| 2026-05-07 14:35 | 31.77437 | -82.33542 | 38984 ft | 448 kts | 184° |
| 2026-05-07 14:36 | 31.71199 | -82.32901 | 38987 ft | 447 kts | 184° |
| 2026-05-07 14:36 | 31.64958 | -82.32250 | 38990 ft | 448 kts | 184° |
| 2026-05-07 14:37 | 31.58756 | -82.31598 | 38994 ft | 449 kts | 184° |
| 2026-05-07 14:37 | 31.49386 | -82.30613 | 38996 ft | 451 kts | 184° |
| 2026-05-07 14:38 | 31.43095 | -82.29951 | 38999 ft | 451 kts | 184° |
| 2026-05-07 14:38 | 31.36840 | -82.29290 | 38998 ft | 450 kts | 184° |
| 2026-05-07 14:39 | 31.30616 | -82.28636 | 38999 ft | 451 kts | 184° |
| 2026-05-07 14:39 | 31.24309 | -82.27979 | 39002 ft | 453 kts | 184° |
| 2026-05-07 14:40 | 31.18025 | -82.27323 | 39002 ft | 453 kts | 184° |
| 2026-05-07 14:40 | 31.11755 | -82.26666 | 38998 ft | 454 kts | 184° |
| 2026-05-07 14:41 | 31.05403 | -82.26007 | 38996 ft | 455 kts | 184° |
| 2026-05-07 14:41 | 30.99140 | -82.25820 | 38992 ft | 443 kts | 192° |
| 2026-05-07 14:42 | 30.93021 | -82.26532 | 38992 ft | 440 kts | 196° |
| 2026-05-07 14:42 | 30.86906 | -82.27516 | 38995 ft | 442 kts | 197° |
| 2026-05-07 14:43 | 30.80789 | -82.28507 | 38990 ft | 443 kts | 196° |
| 2026-05-07 14:43 | 30.74701 | -82.29446 | 38994 ft | 442 kts | 196° |
| 2026-05-07 14:44 | 30.68575 | -82.30370 | 38995 ft | 444 kts | 196° |
| 2026-05-07 14:44 | 30.62425 | -82.31188 | 38991 ft | 447 kts | 193° |
| 2026-05-07 14:45 | 30.56107 | -82.31014 | 38998 ft | 458 kts | 182° |
| 2026-05-07 14:45 | 30.49730 | -82.29899 | 38992 ft | 465 kts | 178° |
| 2026-05-07 14:46 | 30.43361 | -82.28535 | 38994 ft | 465 kts | 177° |
| 2026-05-07 14:46 | 30.36999 | -82.27167 | 38646 ft | 462 kts | 177° |
| 2026-05-07 14:47 | 30.33824 | -82.26495 | 38213 ft | 456 kts | 178° |
| 2026-05-07 14:47 | 30.30710 | -82.25845 | 37669 ft | 454 kts | 178° |
| 2026-05-07 14:47 | 30.27599 | -82.25208 | 37059 ft | 454 kts | 178° |
| 2026-05-07 14:47 | 30.24511 | -82.24583 | 36433 ft | 454 kts | 178° |
| 2026-05-07 14:48 | 30.21368 | -82.23951 | 35782 ft | 454 kts | 178° |
| 2026-05-07 14:48 | 30.18253 | -82.23328 | 35063 ft | 454 kts | 178° |
| 2026-05-07 14:48 | 30.15143 | -82.22710 | 34329 ft | 454 kts | 178° |
| 2026-05-07 14:48 | 30.12058 | -82.22100 | 33591 ft | 455 kts | 178° |
| 2026-05-07 14:49 | 30.08922 | -82.21481 | 32836 ft | 455 kts | 178° |
| 2026-05-07 14:49 | 30.05777 | -82.20862 | 32078 ft | 457 kts | 178° |
| 2026-05-07 14:49 | 30.02641 | -82.20245 | 31289 ft | 459 kts | 178° |
| 2026-05-07 14:49 | 29.99473 | -82.19621 | 30699 ft | 456 kts | 178° |
| 2026-05-07 14:50 | 29.96350 | -82.19007 | 30218 ft | 464 kts | 178° |
| 2026-05-07 14:50 | 29.93111 | -82.18375 | 29668 ft | 469 kts | 178° |
| 2026-05-07 14:50 | 29.89926 | -82.17747 | 29122 ft | 465 kts | 178° |
| 2026-05-07 14:50 | 29.86659 | -82.17093 | 28565 ft | 461 kts | 177° |
| 2026-05-07 14:51 | 29.83501 | -82.16457 | 28034 ft | 457 kts | 177° |
| 2026-05-07 14:51 | 29.80397 | -82.15830 | 27491 ft | 453 kts | 178° |
| 2026-05-07 14:51 | 29.77268 | -82.15201 | 26940 ft | 449 kts | 177° |
| 2026-05-07 14:51 | 29.74194 | -82.14584 | 26395 ft | 446 kts | 177° |
| 2026-05-07 14:52 | 29.71153 | -82.13976 | 25854 ft | 443 kts | 177° |
| 2026-05-07 14:52 | 29.68137 | -82.13375 | 25310 ft | 439 kts | 177° |
| 2026-05-07 14:52 | 29.65111 | -82.12772 | 24762 ft | 436 kts | 177° |
| 2026-05-07 14:52 | 29.62133 | -82.12180 | 24222 ft | 433 kts | 177° |
| 2026-05-07 14:53 | 29.59183 | -82.11594 | 23678 ft | 429 kts | 177° |
| 2026-05-07 14:53 | 29.56257 | -82.11015 | 23140 ft | 426 kts | 177° |
| 2026-05-07 14:53 | 29.53355 | -82.10439 | 22603 ft | 422 kts | 177° |
| 2026-05-07 14:53 | 29.50438 | -82.09862 | 22065 ft | 419 kts | 177° |
| 2026-05-07 14:54 | 29.47571 | -82.09295 | 21534 ft | 416 kts | 176° |
| 2026-05-07 14:54 | 29.44731 | -82.08734 | 20999 ft | 413 kts | 176° |
| 2026-05-07 14:54 | 29.41914 | -82.08178 | 20469 ft | 410 kts | 176° |
| 2026-05-07 14:54 | 29.39121 | -82.07627 | 19945 ft | 407 kts | 176° |
| 2026-05-07 14:55 | 29.36314 | -82.07074 | 19402 ft | 404 kts | 176° |
| 2026-05-07 14:55 | 29.33542 | -82.06488 | 18873 ft | 403 kts | 173° |
| 2026-05-07 14:55 | 29.30832 | -82.05674 | 18333 ft | 404 kts | 166° |
| 2026-05-07 14:55 | 29.28233 | -82.04494 | 17801 ft | 405 kts | 160° |
| 2026-05-07 14:56 | 29.25706 | -82.03064 | 17198 ft | 406 kts | 156° |
| 2026-05-07 14:56 | 29.23196 | -82.01485 | 16634 ft | 404 kts | 154° |
| 2026-05-07 14:56 | 29.20794 | -81.99912 | 16092 ft | 401 kts | 154° |
| 2026-05-07 14:56 | 29.18386 | -81.98326 | 15553 ft | 397 kts | 154° |
| 2026-05-07 14:57 | 29.15990 | -81.96764 | 15023 ft | 393 kts | 154° |
| 2026-05-07 14:57 | 29.13601 | -81.95228 | 14497 ft | 390 kts | 154° |
| 2026-05-07 14:57 | 29.11214 | -81.93711 | 13975 ft | 386 kts | 154° |
| 2026-05-07 14:57 | 29.08906 | -81.92196 | 13478 ft | 384 kts | 150° |
| 2026-05-07 14:58 | 29.06692 | -81.90476 | 12969 ft | 383 kts | 147° |
| 2026-05-07 14:58 | 29.04601 | -81.88632 | 12426 ft | 381 kts | 143° |
| 2026-05-07 14:58 | 29.02606 | -81.86619 | 11892 ft | 379 kts | 140° |
| 2026-05-07 14:58 | 29.00694 | -81.84551 | 11411 ft | 376 kts | 139° |
| 2026-05-07 14:59 | 28.98836 | -81.82484 | 11034 ft | 369 kts | 137° |
| 2026-05-07 14:59 | 28.97178 | -81.80258 | 10772 ft | 360 kts | 130° |
| 2026-05-07 14:59 | 28.95685 | -81.78044 | 10565 ft | 350 kts | 129° |
| 2026-05-07 14:59 | 28.94222 | -81.75842 | 10319 ft | 341 kts | 129° |
| 2026-05-07 15:00 | 28.92801 | -81.73705 | 10075 ft | 332 kts | 129° |
| 2026-05-07 15:00 | 28.91424 | -81.71645 | 9943 ft | 319 kts | 129° |
| 2026-05-07 15:00 | 28.90110 | -81.69684 | 9956 ft | 303 kts | 130° |
| 2026-05-07 15:00 | 28.88836 | -81.67790 | 9759 ft | 296 kts | 130° |
| 2026-05-07 15:01 | 28.87569 | -81.65915 | 9514 ft | 290 kts | 130° |
| 2026-05-07 15:01 | 28.86345 | -81.64105 | 9248 ft | 286 kts | 130° |
| 2026-05-07 15:01 | 28.85145 | -81.62333 | 8935 ft | 284 kts | 130° |
| 2026-05-07 15:01 | 28.83938 | -81.60549 | 8638 ft | 282 kts | 130° |
| 2026-05-07 15:02 | 28.82752 | -81.58760 | 8318 ft | 280 kts | 128° |
| 2026-05-07 15:02 | 28.81629 | -81.56960 | 7995 ft | 278 kts | 127° |
| 2026-05-07 15:02 | 28.80529 | -81.55157 | 7678 ft | 276 kts | 127° |
| 2026-05-07 15:02 | 28.79439 | -81.53363 | 7394 ft | 274 kts | 127° |
| 2026-05-07 15:03 | 28.78354 | -81.51571 | 7090 ft | 273 kts | 127° |
| 2026-05-07 15:03 | 28.77271 | -81.49785 | 6773 ft | 271 kts | 127° |
| 2026-05-07 15:03 | 28.76207 | -81.48034 | 6498 ft | 268 kts | 127° |
| 2026-05-07 15:03 | 28.75147 | -81.46292 | 6262 ft | 264 kts | 127° |
| 2026-05-07 15:04 | 28.74121 | -81.44604 | 6025 ft | 260 kts | 127° |
| 2026-05-07 15:04 | 28.73232 | -81.42834 | 5779 ft | 258 kts | 110° |
| 2026-05-07 15:04 | 28.72806 | -81.40855 | 5549 ft | 255 kts | 101° |
| 2026-05-07 15:04 | 28.72522 | -81.38866 | 5308 ft | 252 kts | 100° |
| 2026-05-07 15:05 | 28.72260 | -81.36907 | 5069 ft | 250 kts | 99° |
| 2026-05-07 15:05 | 28.71884 | -81.35004 | 4820 ft | 245 kts | 116° |
| 2026-05-07 15:05 | 28.70867 | -81.33498 | 4579 ft | 234 kts | 148° |
| 2026-05-07 15:05 | 28.69423 | -81.32760 | 4345 ft | 225 kts | 174° |
| 2026-05-07 15:06 | 28.67892 | -81.32783 | 4119 ft | 218 kts | 189° |
| 2026-05-07 15:06 | 28.66381 | -81.32928 | 3882 ft | 216 kts | 184° |
| 2026-05-07 15:06 | 28.64871 | -81.32935 | 3648 ft | 213 kts | 181° |
| 2026-05-07 15:06 | 28.63397 | -81.32896 | 3408 ft | 210 kts | 181° |
| 2026-05-07 15:07 | 28.61931 | -81.32873 | 3167 ft | 208 kts | 181° |
| 2026-05-07 15:07 | 28.60485 | -81.32862 | 2974 ft | 203 kts | 181° |
| 2026-05-07 15:07 | 28.59096 | -81.32848 | 2802 ft | 198 kts | 181° |
| 2026-05-07 15:07 | 28.57720 | -81.32833 | 2580 ft | 194 kts | 181° |
| 2026-05-07 15:08 | 28.56379 | -81.32819 | 2278 ft | 186 kts | 181° |
| 2026-05-07 15:08 | 28.55136 | -81.32805 | 2052 ft | 175 kts | 181° |
| 2026-05-07 15:08 | 28.53921 | -81.32793 | 1830 ft | 170 kts | 182° |
| 2026-05-07 15:08 | 28.52779 | -81.32780 | 1625 ft | 157 kts | 181° |
| 2026-05-07 15:09 | 28.51703 | -81.32769 | 1452 ft | 151 kts | 182° |
| 2026-05-07 15:09 | 28.50625 | -81.32760 | 1214 ft | 152 kts | 181° |
| 2026-05-07 15:09 | 28.49568 | -81.32748 | 1020 ft | 152 kts | 181° |
| 2026-05-07 15:09 | 28.48506 | -81.32736 | 821 ft | 151 kts | 181° |
| 2026-05-07 15:10 | 28.47441 | -81.32725 | 626 ft | 151 kts | 181° |
| 2026-05-07 15:10 | 28.46383 | -81.32714 | 432 ft | 150 kts | 181° |
| 2026-05-07 15:10 | 28.45340 | -81.32703 | 243 ft | 150 kts | 181° |
| 2026-05-07 15:10 | 28.44301 | -81.32692 | 105 ft | 143 kts | 180° |
| 2026-05-07 15:11 | 28.43546 | -81.32688 | 104 ft | 80 kts | 180° |
| 2026-05-07 15:11 | 28.43178 | -81.32667 | 104 ft | 31 kts | 165° |
| 2026-05-07 15:11 | 28.43061 | -81.32538 | 104 ft | 17 kts | 98° |
| 2026-05-07 15:11 | 28.43058 | -81.32387 | 104 ft | 19 kts | 91° |
| 2026-05-07 15:12 | 28.43058 | -81.32226 | 104 ft | 21 kts | 89° |
| 2026-05-07 15:12 | 28.43091 | -81.32051 | 103 ft | 24 kts | 55° |
| 2026-05-07 15:12 | 28.43242 | -81.31996 | 104 ft | 24 kts | 359° |
| 2026-05-07 15:12 | 28.43418 | -81.31998 | 104 ft | 25 kts | 360° |
| 2026-05-07 15:13 | 28.43588 | -81.32001 | 104 ft | 24 kts | 359° |
| 2026-05-07 15:13 | 28.43759 | -81.32003 | 103 ft | 24 kts | 359° |
| 2026-05-07 15:13 | 28.43924 | -81.31999 | 103 ft | 23 kts | 20° |
| 2026-05-07 15:13 | 28.43924 | -81.31834 | 104 ft | 24 kts | 101° |
| 2026-05-07 15:14 | 28.43922 | -81.31631 | 104 ft | 26 kts | 89° |
| 2026-05-07 15:14 | 28.43926 | -81.31409 | 103 ft | 29 kts | 88° |
| 2026-05-07 15:14 | 28.43937 | -81.31176 | 120 ft | 31 kts | 88° |
| 2026-05-07 15:14 | 28.43939 | -81.30904 | 120 ft | 36 kts | 91° |
| 2026-05-07 15:15 | 28.43928 | -81.30621 | 117 ft | 36 kts | 94° |
| 2026-05-07 15:15 | 28.43912 | -81.30338 | 103 ft | 23 kts | 96° |
| 2026-05-07 15:15 | 28.43797 | -81.30253 | 103 ft | 21 kts | 179° |
| 2026-05-07 15:15 | 28.43680 | -81.30219 | 103 ft | 11 kts | 158° |
| 2026-05-07 15:16 | 28.43629 | -81.30197 | 103 ft | 3 kts | 159° |
| 2026-05-07 15:16 | 28.43621 | -81.30193 | 103 ft | 0 kts | 159° |
| 2026-05-07 15:16 | 28.43619 | -81.30193 | 103 ft | 0 kts | 159° |